Time;durP1;ratioP1;P1;durP2;ratioP2;P2;SDS_P1;SDS_P2;PMS_P1;PMS_P2;Temp;Humidity;BMP_temperature;BMP_pressure;BME280_temperature;BME280_humidity;BME280_pressure;Samples;Min_cycle;Max_cycle;Signal;HPM_P1;HPM_P2
2021/10/31 00:01:12;;;;;;;4.77;3.93;;;;;;;;;;4975564;28;20411;-81
2021/10/31 00:03:38;;;;;;;6.50;3.70;;;;;;;;;;4975642;28;20408;-82
2021/10/31 00:06:04;;;;;;;4.35;3.95;;;;;;;;;;4976008;28;20175;-81
2021/10/31 00:08:30;;;;;;;5.73;4.10;;;;;;;;;;4975352;28;20247;-80
2021/10/31 00:10:57;;;;;;;6.33;3.67;;;;;;;;;;4975257;28;20772;-81
2021/10/31 00:13:24;;;;;;;7.88;4.00;;;;;;;;;;4976027;28;20470;-80
2021/10/31 00:15:50;;;;;;;7.15;3.97;;;;;;;;;;4975998;28;20176;-79
2021/10/31 00:18:16;;;;;;;7.72;4.35;;;;;;;;;;4975971;28;20253;-82
2021/10/31 00:20:42;;;;;;;4.30;3.70;;;;;;;;;;4976572;28;20176;-80
2021/10/31 00:23:09;;;;;;;4.90;4.15;;;;;;;;;;4976018;28;20936;-79
2021/10/31 00:25:35;;;;;;;4.85;3.60;;;;;;;;;;4981986;28;20188;-82
2021/10/31 00:28:01;;;;;;;4.47;3.50;;;;;;;;;;4975164;28;20180;-80
2021/10/31 00:30:27;;;;;;;4.80;3.47;;;;;;;;;;4973611;28;20802;-81
2021/10/31 00:32:53;;;;;;;6.45;4.18;;;;;;;;;;4974926;28;20439;-81
2021/10/31 00:35:19;;;;;;;5.30;3.60;;;;;;;;;;4974871;28;20183;-82
2021/10/31 00:37:45;;;;;;;6.73;3.93;;;;;;;;;;4974783;28;20204;-83
2021/10/31 00:40:13;;;;;;;6.80;5.00;;;;;;;;;;4975059;28;20408;-81
2021/10/31 00:42:39;;;;;;;6.00;3.78;;;;;;;;;;4974462;28;20518;-79
2021/10/31 00:45:06;;;;;;;6.53;4.18;;;;;;;;;;4974819;28;20208;-80
2021/10/31 00:47:32;;;;;;;5.07;4.22;;;;;;;;;;4957412;28;20188;-79
2021/10/31 00:49:58;;;;;;;7.97;4.65;;;;;;;;;;4974511;28;20180;-81
2021/10/31 00:52:25;;;;;;;4.47;3.92;;;;;;;;;;4973025;28;20270;-82
2021/10/31 00:54:51;;;;;;;8.43;4.30;;;;;;;;;;4974675;28;20180;-82
2021/10/31 00:57:17;;;;;;;6.72;3.63;;;;;;;;;;4974646;28;20207;-79
2021/10/31 00:59:43;;;;;;;4.60;3.97;;;;;;;;;;4973238;28;20191;-82
2021/10/31 01:02:11;;;;;;;6.10;3.53;;;;;;;;;;4974211;28;20222;-80
2021/10/31 01:04:41;;;;;;;5.20;3.92;;;;;;;;;;4974613;28;20176;-80
2021/10/31 01:07:36;;;;;;;5.90;3.90;;;;;;;;;;4974461;28;20183;-80
2021/10/31 01:10:07;;;;;;;5.05;4.20;;;;;;;;;;4962173;28;20211;-81
2021/10/31 01:12:40;;;;;;;8.45;4.38;;;;;;;;;;4974286;28;20200;-83
2021/10/31 01:15:25;;;;;;;7.05;4.72;;;;;;;;;;4974451;28;20180;-82
2021/10/31 01:17:50;;;;;;;13.32;4.40;;;;;;;;;;4974181;28;20196;-82
2021/10/31 01:20:35;;;;;;;5.40;4.50;;;;;;;;;;4974583;28;20180;-81
2021/10/31 01:23:08;;;;;;;5.30;4.00;;;;;;;;;;4976903;28;20883;-80
2021/10/31 01:26:02;;;;;;;7.55;4.78;;;;;;;;;;4978724;28;20634;-81
2021/10/31 01:28:46;;;;;;;5.75;4.85;;;;;;;;;;4978460;28;20168;-83
2021/10/31 01:31:27;;;;;;;7.38;5.25;;;;;;;;;;4978100;28;20199;-80
2021/10/31 01:34:12;;;;;;;6.03;4.40;;;;;;;;;;4976904;28;20183;-82
2021/10/31 01:36:41;;;;;;;6.43;4.38;;;;;;;;;;4978286;28;20183;-83
2021/10/31 01:39:20;;;;;;;6.07;4.32;;;;;;;;;;4978225;28;20207;-80
2021/10/31 01:41:52;;;;;;;11.43;4.45;;;;;;;;;;4976468;28;20571;-82
2021/10/31 01:44:21;;;;;;;4.65;3.92;;;;;;;;;;4977986;28;20586;-83
2021/10/31 01:46:47;;;;;;;4.95;3.65;;;;;;;;;;4978034;28;20589;-82
2021/10/31 01:49:29;;;;;;;10.63;4.13;;;;;;;;;;4978227;28;20185;-82
2021/10/31 01:51:56;;;;;;;4.88;4.47;;;;;;;;;;4977573;28;20427;-80
2021/10/31 01:54:27;;;;;;;4.07;3.70;;;;;;;;;;4977823;28;20186;-81
2021/10/31 01:56:56;;;;;;;7.47;4.30;;;;;;;;;;4978085;28;20175;-81
2021/10/31 01:59:25;;;;;;;8.07;4.25;;;;;;;;;;4978003;28;20180;-82
2021/10/31 02:01:51;;;;;;;6.80;3.90;;;;;;;;;;4977382;28;20599;-81
2021/10/31 02:04:19;;;;;;;6.35;4.10;;;;;;;;;;4977654;28;20176;-82
2021/10/31 02:06:47;;;;;;;7.80;3.80;;;;;;;;;;4977576;28;20172;-80
2021/10/31 02:09:15;;;;;;;5.95;4.22;;;;;;;;;;4977618;28;20180;-82
2021/10/31 02:11:43;;;;;;;7.80;4.43;;;;;;;;;;4975918;28;20203;-80
2021/10/31 02:14:10;;;;;;;6.22;3.55;;;;;;;;;;4976305;28;20184;-81
2021/10/31 02:16:36;;;;;;;4.00;3.60;;;;;;;;;;4977424;28;20191;-82
2021/10/31 02:19:05;;;;;;;3.90;3.60;;;;;;;;;;4977320;28;20691;-82
2021/10/31 02:21:33;;;;;;;5.38;4.13;;;;;;;;;;4977133;28;20179;-82
2021/10/31 02:24:00;;;;;;;3.70;3.38;;;;;;;;;;4977310;28;20637;-81
2021/10/31 02:26:26;;;;;;;4.43;3.80;;;;;;;;;;4977226;28;20176;-82
2021/10/31 02:28:56;;;;;;;7.47;3.40;;;;;;;;;;4977297;28;20190;-82
2021/10/31 02:31:22;;;;;;;4.63;3.53;;;;;;;;;;4976206;28;20517;-82
2021/10/31 02:33:48;;;;;;;8.68;3.75;;;;;;;;;;4977159;28;20169;-80
2021/10/31 02:36:14;;;;;;;7.67;3.80;;;;;;;;;;4976294;28;20641;-80
2021/10/31 02:38:40;;;;;;;7.90;3.63;;;;;;;;;;4976075;28;20988;-82
2021/10/31 02:41:06;;;;;;;5.20;4.70;;;;;;;;;;4959731;28;20176;-81
2021/10/31 02:43:32;;;;;;;4.73;4.20;;;;;;;;;;4975735;28;21023;-80
2021/10/31 02:45:58;;;;;;;3.47;3.10;;;;;;;;;;4977089;28;20408;-82
2021/10/31 02:48:24;;;;;;;5.13;3.30;;;;;;;;;;4976923;28;20893;-82
2021/10/31 02:50:51;;;;;;;7.00;3.55;;;;;;;;;;4959582;28;20963;-81
2021/10/31 02:53:26;;;;;;;4.80;4.40;;;;;;;;;;4975115;28;20236;-81
2021/10/31 02:55:52;;;;;;;7.28;3.58;;;;;;;;;;4976929;28;20176;-81
2021/10/31 02:58:26;;;;;;;7.50;4.47;;;;;;;;;;4976693;28;20211;-81
2021/10/31 03:00:57;;;;;;;3.60;3.20;;;;;;;;;;4976685;28;20419;-80
2021/10/31 03:03:28;;;;;;;10.43;3.85;;;;;;;;;;4975377;28;20200;-81
2021/10/31 03:05:57;;;;;;;4.55;3.80;;;;;;;;;;4976668;28;20303;-80
2021/10/31 03:08:24;;;;;;;5.03;4.10;;;;;;;;;;4976575;28;20184;-81
2021/10/31 03:10:50;;;;;;;5.93;4.25;;;;;;;;;;4974928;28;20203;-80
2021/10/31 03:13:16;;;;;;;5.40;3.70;;;;;;;;;;4976133;28;20192;-79
2021/10/31 03:15:42;;;;;;;6.78;4.25;;;;;;;;;;4959331;28;20215;-80
2021/10/31 03:18:08;;;;;;;3.22;2.92;;;;;;;;;;4976223;28;20591;-81
2021/10/31 03:20:34;;;;;;;4.90;3.92;;;;;;;;;;4976303;28;20184;-80
2021/10/31 03:23:00;;;;;;;4.57;3.80;;;;;;;;;;4975604;28;20569;-80
2021/10/31 03:25:26;;;;;;;6.83;4.30;;;;;;;;;;4975069;28;20419;-80
2021/10/31 03:27:52;;;;;;;5.63;4.30;;;;;;;;;;4976207;28;20972;-81
2021/10/31 03:30:20;;;;;;;7.50;4.75;;;;;;;;;;4958786;28;20435;-79
2021/10/31 03:32:46;;;;;;;6.35;4.65;;;;;;;;;;4975620;28;20242;-79
2021/10/31 03:35:13;;;;;;;8.32;4.57;;;;;;;;;;4976146;28;20172;-80
2021/10/31 03:37:39;;;;;;;6.53;4.25;;;;;;;;;;4975948;28;20561;-79
2021/10/31 03:40:05;;;;;;;8.13;4.95;;;;;;;;;;4974796;28;20176;-79
2021/10/31 03:42:31;;;;;;;5.53;4.95;;;;;;;;;;4975476;28;20201;-80
2021/10/31 03:44:58;;;;;;;5.82;4.18;;;;;;;;;;4973539;28;20271;-81
2021/10/31 03:47:27;;;;;;;6.15;4.47;;;;;;;;;;4975848;28;20180;-81
2021/10/31 03:49:53;;;;;;;4.80;4.30;;;;;;;;;;4975693;28;20177;-79
2021/10/31 03:52:19;;;;;;;5.55;5.05;;;;;;;;;;4975394;28;20250;-81
2021/10/31 03:54:45;;;;;;;5.80;5.10;;;;;;;;;;4975746;28;20260;-80
2021/10/31 03:57:11;;;;;;;5.40;4.80;;;;;;;;;;4975719;28;21334;-79
2021/10/31 03:59:37;;;;;;;6.25;4.72;;;;;;;;;;4975781;28;20180;-81
2021/10/31 04:02:04;;;;;;;11.55;5.10;;;;;;;;;;4975354;28;20200;-80
2021/10/31 04:04:31;;;;;;;8.00;5.43;;;;;;;;;;4975506;28;20546;-79
2021/10/31 04:06:57;;;;;;;4.88;4.32;;;;;;;;;;4975460;28;20262;-79
2021/10/31 04:09:23;;;;;;;7.53;6.20;;;;;;;;;;4975445;28;20597;-81
2021/10/31 04:11:49;;;;;;;6.17;5.57;;;;;;;;;;4974983;28;20446;-79
2021/10/31 04:14:15;;;;;;;9.40;5.43;;;;;;;;;;4975362;28;20502;-80
2021/10/31 04:16:41;;;;;;;10.15;5.50;;;;;;;;;;4974091;28;20180;-79
2021/10/31 04:19:07;;;;;;;8.02;5.95;;;;;;;;;;4973869;28;20262;-80
2021/10/31 04:21:33;;;;;;;7.50;6.43;;;;;;;;;;4974722;28;20219;-81
2021/10/31 04:23:59;;;;;;;6.30;5.70;;;;;;;;;;4973996;28;20649;-79
2021/10/31 04:26:25;;;;;;;6.47;5.83;;;;;;;;;;4974291;28;20418;-79
2021/10/31 04:28:51;;;;;;;8.77;6.50;;;;;;;;;;4973983;28;20455;-80
2021/10/31 04:31:17;;;;;;;8.95;5.88;;;;;;;;;;4973318;28;20474;-80
2021/10/31 04:33:43;;;;;;;8.30;6.90;;;;;;;;;;4974100;28;20665;-80
2021/10/31 04:36:09;;;;;;;8.77;5.88;;;;;;;;;;4973836;28;20420;-81
2021/10/31 04:38:35;;;;;;;9.38;5.68;;;;;;;;;;4973617;28;20259;-81
2021/10/31 04:41:02;;;;;;;10.13;5.85;;;;;;;;;;4974882;28;20172;-79
2021/10/31 04:43:28;;;;;;;7.00;5.97;;;;;;;;;;4974891;28;20307;-80
2021/10/31 04:45:54;;;;;;;6.93;6.10;;;;;;;;;;4957807;28;20283;-81
2021/10/31 04:48:23;;;;;;;9.88;5.88;;;;;;;;;;4974971;28;20419;-80
2021/10/31 04:50:49;;;;;;;7.68;6.88;;;;;;;;;;4974842;28;20231;-81
2021/10/31 04:53:15;;;;;;;8.80;6.40;;;;;;;;;;4973254;28;20521;-80
2021/10/31 04:55:41;;;;;;;6.57;5.97;;;;;;;;;;4974346;28;20430;-80
2021/10/31 04:58:08;;;;;;;7.55;5.63;;;;;;;;;;4973313;28;20204;-78
2021/10/31 05:00:35;;;;;;;5.85;5.25;;;;;;;;;;4974649;28;20199;-81
2021/10/31 05:03:01;;;;;;;6.85;6.15;;;;;;;;;;4974175;28;20262;-78
2021/10/31 05:05:28;;;;;;;7.97;6.38;;;;;;;;;;4974567;28;20521;-79
2021/10/31 05:07:57;;;;;;;7.80;6.72;;;;;;;;;;4974440;28;20173;-81
2021/10/31 05:10:24;;;;;;;8.15;6.25;;;;;;;;;;4974801;28;20187;-82
2021/10/31 05:12:50;;;;;;;6.85;6.05;;;;;;;;;;4972898;28;20245;-79
2021/10/31 05:15:16;;;;;;;8.53;6.43;;;;;;;;;;4974510;28;20255;-79
2021/10/31 05:17:42;;;;;;;9.55;6.25;;;;;;;;;;4974192;28;20473;-80
2021/10/31 05:20:09;;;;;;;6.80;5.80;;;;;;;;;;4974375;28;20180;-81
2021/10/31 05:22:36;;;;;;;7.80;5.82;;;;;;;;;;4974060;28;20223;-79
2021/10/31 05:25:02;;;;;;;7.63;5.95;;;;;;;;;;4974280;28;20177;-80
2021/10/31 05:27:28;;;;;;;6.50;5.18;;;;;;;;;;4974410;28;20220;-79
2021/10/31 05:29:54;;;;;;;7.00;5.30;;;;;;;;;;4974317;28;20274;-82
2021/10/31 05:32:20;;;;;;;6.00;5.40;;;;;;;;;;4973868;28;20570;-80
2021/10/31 05:34:46;;;;;;;6.65;5.53;;;;;;;;;;4974550;28;20423;-78
2021/10/31 05:37:13;;;;;;;6.00;5.40;;;;;;;;;;4973213;28;20619;-79
2021/10/31 05:39:39;;;;;;;7.68;5.55;;;;;;;;;;4974370;28;20471;-80
2021/10/31 05:42:05;;;;;;;6.05;5.43;;;;;;;;;;4973803;28;20219;-80
2021/10/31 05:44:31;;;;;;;7.32;5.35;;;;;;;;;;4973079;28;20748;-80
2021/10/31 05:46:57;;;;;;;6.23;5.63;;;;;;;;;;4973089;28;20220;-77
2021/10/31 05:49:23;;;;;;;7.43;5.47;;;;;;;;;;4972947;28;20501;-79
2021/10/31 05:51:49;;;;;;;6.22;5.47;;;;;;;;;;4972489;28;20982;-81
2021/10/31 05:54:15;;;;;;;7.50;6.18;;;;;;;;;;4972816;28;20181;-81
2021/10/31 05:56:41;;;;;;;7.17;6.47;;;;;;;;;;4973188;28;20664;-79
2021/10/31 05:59:07;;;;;;;7.30;5.27;;;;;;;;;;4974031;28;20458;-81
2021/10/31 06:01:33;;;;;;;8.13;5.93;;;;;;;;;;4972467;28;20447;-79
2021/10/31 06:04:00;;;;;;;7.03;6.32;;;;;;;;;;4972733;28;20462;-80
2021/10/31 06:06:26;;;;;;;6.55;5.85;;;;;;;;;;4973001;28;20314;-80
2021/10/31 06:08:52;;;;;;;6.07;5.45;;;;;;;;;;4977787;28;20202;-78
2021/10/31 06:11:19;;;;;;;6.17;5.53;;;;;;;;;;4960035;28;20286;-78
2021/10/31 06:13:45;;;;;;;8.45;5.35;;;;;;;;;;4977589;28;20768;-79
2021/10/31 06:16:12;;;;;;;7.90;5.32;;;;;;;;;;4977380;28;20186;-80
2021/10/31 06:18:38;;;;;;;7.50;4.93;;;;;;;;;;4977520;28;20200;-79
2021/10/31 06:21:04;;;;;;;6.25;5.60;;;;;;;;;;4976021;28;20177;-78
2021/10/31 06:23:30;;;;;;;6.57;5.88;;;;;;;;;;4977255;28;20251;-80
2021/10/31 06:25:56;;;;;;;7.13;5.47;;;;;;;;;;4977201;28;20259;-79
2021/10/31 06:28:22;;;;;;;7.90;6.30;;;;;;;;;;4959840;28;20283;-79
2021/10/31 06:30:48;;;;;;;6.72;5.95;;;;;;;;;;4975714;28;20490;-81
2021/10/31 06:33:15;;;;;;;9.88;6.40;;;;;;;;;;4976967;28;20206;-80
2021/10/31 06:35:41;;;;;;;10.40;5.75;;;;;;;;;;4977186;28;20653;-81
2021/10/31 06:38:07;;;;;;;7.03;5.70;;;;;;;;;;4975716;28;20212;-79
2021/10/31 06:40:33;;;;;;;7.25;5.70;;;;;;;;;;4976928;28;20208;-80
2021/10/31 06:42:59;;;;;;;8.30;6.00;;;;;;;;;;4975448;28;20204;-80
2021/10/31 06:45:25;;;;;;;8.43;6.55;;;;;;;;;;4977265;28;20180;-78
2021/10/31 06:47:51;;;;;;;9.27;6.07;;;;;;;;;;4976940;28;20190;-80
2021/10/31 06:50:17;;;;;;;8.57;6.35;;;;;;;;;;4975789;28;20188;-79
2021/10/31 06:52:44;;;;;;;7.60;6.57;;;;;;;;;;4976590;28;20200;-81
2021/10/31 06:55:11;;;;;;;6.10;5.50;;;;;;;;;;4975700;28;20183;-79
2021/10/31 06:57:39;;;;;;;9.05;5.97;;;;;;;;;;4975434;28;20211;-78
2021/10/31 07:00:06;;;;;;;10.07;6.00;;;;;;;;;;4975545;28;20716;-80
2021/10/31 07:02:32;;;;;;;8.60;6.50;;;;;;;;;;4976383;28;20200;-78
2021/10/31 07:04:58;;;;;;;6.90;6.30;;;;;;;;;;4976626;28;20224;-79
2021/10/31 07:07:24;;;;;;;7.50;6.60;;;;;;;;;;4975596;28;20754;-78
2021/10/31 07:09:50;;;;;;;6.55;5.90;;;;;;;;;;4976635;28;20172;-80
2021/10/31 07:12:17;;;;;;;7.53;6.10;;;;;;;;;;4976099;28;20210;-78
2021/10/31 07:14:43;;;;;;;9.20;6.25;;;;;;;;;;4975127;28;20438;-80
2021/10/31 07:17:09;;;;;;;10.35;6.47;;;;;;;;;;4975172;28;20180;-80
2021/10/31 07:19:35;;;;;;;7.82;7.03;;;;;;;;;;4976281;28;20267;-79
2021/10/31 07:22:01;;;;;;;9.77;6.83;;;;;;;;;;4975920;28;20307;-79
2021/10/31 07:24:27;;;;;;;8.55;6.15;;;;;;;;;;4976394;28;20764;-79
2021/10/31 07:26:53;;;;;;;7.40;6.70;;;;;;;;;;4976045;28;20172;-80
2021/10/31 07:29:19;;;;;;;7.60;6.45;;;;;;;;;;4976134;28;20412;-80
2021/10/31 07:31:46;;;;;;;8.30;6.82;;;;;;;;;;4974558;28;20219;-81
2021/10/31 07:34:13;;;;;;;9.50;7.88;;;;;;;;;;4976326;28;20255;-80
2021/10/31 07:36:40;;;;;;;8.15;6.65;;;;;;;;;;4976160;28;20187;-81
2021/10/31 07:39:09;;;;;;;11.00;7.25;;;;;;;;;;4976109;28;20227;-79
2021/10/31 07:41:35;;;;;;;7.50;6.70;;;;;;;;;;4975809;28;20195;-80
2021/10/31 07:44:00;;;;;;;8.15;7.35;;;;;;;;;;4976258;28;20172;-80
2021/10/31 07:46:26;;;;;;;11.37;7.37;;;;;;;;;;4976064;28;20594;-80
2021/10/31 07:48:52;;;;;;;8.57;7.40;;;;;;;;;;4976006;28;20415;-79
2021/10/31 07:51:19;;;;;;;8.83;6.77;;;;;;;;;;4975762;28;20524;-79
2021/10/31 07:53:44;;;;;;;8.43;7.43;;;;;;;;;;4975663;28;20426;-79
2021/10/31 07:56:13;;;;;;;9.73;7.53;;;;;;;;;;4975838;28;20184;-79
2021/10/31 07:58:42;;;;;;;10.48;7.10;;;;;;;;;;4975605;28;20510;-81
2021/10/31 08:01:09;;;;;;;8.05;7.35;;;;;;;;;;4974223;28;20436;-80
2021/10/31 08:03:36;;;;;;;8.45;7.40;;;;;;;;;;4975629;28;20204;-81
2021/10/31 08:06:01;;;;;;;10.05;6.60;;;;;;;;;;4974468;28;20219;-81
2021/10/31 08:08:28;;;;;;;11.17;8.23;;;;;;;;;;4975780;28;20215;-80
2021/10/31 08:10:54;;;;;;;10.00;7.22;;;;;;;;;;4974052;28;20419;-78
2021/10/31 08:13:24;;;;;;;8.50;7.35;;;;;;;;;;4975341;28;20286;-78
2021/10/31 08:15:51;;;;;;;9.57;7.18;;;;;;;;;;4975615;28;20198;-77
2021/10/31 08:18:17;;;;;;;13.75;8.00;;;;;;;;;;4975313;28;20200;-80
2021/10/31 08:20:43;;;;;;;9.80;7.32;;;;;;;;;;4975288;28;20539;-78
2021/10/31 08:23:10;;;;;;;9.32;8.20;;;;;;;;;;4975044;28;20545;-80
2021/10/31 08:25:36;;;;;;;10.25;7.30;;;;;;;;;;4975117;28;20172;-77
2021/10/31 08:28:04;;;;;;;8.30;6.85;;;;;;;;;;4973916;28;20242;-79
2021/10/31 08:30:31;;;;;;;7.60;6.68;;;;;;;;;;4974383;28;20188;-79
2021/10/31 08:33:01;;;;;;;9.13;6.38;;;;;;;;;;4973487;28;20219;-79
2021/10/31 08:35:27;;;;;;;7.55;5.95;;;;;;;;;;4974792;28;20211;-78
2021/10/31 08:37:53;;;;;;;5.90;5.40;;;;;;;;;;4984465;28;20238;-80
2021/10/31 08:40:19;;;;;;;6.68;5.03;;;;;;;;;;4994722;28;20605;-78
2021/10/31 08:42:48;;;;;;;6.95;6.25;;;;;;;;;;4994209;28;20541;-81
2021/10/31 08:45:14;;;;;;;6.20;5.35;;;;;;;;;;4994555;28;20612;-80
2021/10/31 08:47:40;;;;;;;3.73;3.43;;;;;;;;;;4994376;28;20175;-81
2021/10/31 08:50:07;;;;;;;3.65;2.55;;;;;;;;;;4994398;28;20426;-79
2021/10/31 08:52:33;;;;;;;3.37;3.07;;;;;;;;;;4994735;28;20222;-78
2021/10/31 08:54:59;;;;;;;3.00;2.73;;;;;;;;;;4994716;28;20423;-79
2021/10/31 08:57:25;;;;;;;3.00;2.70;;;;;;;;;;4995775;28;20820;-81
2021/10/31 08:59:51;;;;;;;2.77;2.57;;;;;;;;;;4994387;28;20445;-80
2021/10/31 09:02:17;;;;;;;5.03;2.73;;;;;;;;;;4993622;28;20521;-79
2021/10/31 09:04:43;;;;;;;2.70;2.50;;;;;;;;;;4976784;28;20458;-80
2021/10/31 09:07:14;;;;;;;2.60;2.40;;;;;;;;;;4993975;28;20414;-81
2021/10/31 09:09:40;;;;;;;3.33;2.77;;;;;;;;;;4992712;28;20784;-79
2021/10/31 09:12:06;;;;;;;3.47;2.37;;;;;;;;;;4992189;28;20433;-81
2021/10/31 09:14:33;;;;;;;2.30;2.03;;;;;;;;;;4993910;28;20817;-78
2021/10/31 09:17:00;;;;;;;1.90;1.80;;;;;;;;;;4993911;28;20421;-79
2021/10/31 09:19:25;;;;;;;3.03;2.03;;;;;;;;;;4993642;28;20544;-82
2021/10/31 09:21:53;;;;;;;1.80;1.70;;;;;;;;;;4993400;28;20473;-81
2021/10/31 09:24:19;;;;;;;1.87;1.77;;;;;;;;;;4993759;28;20403;-80
2021/10/31 09:26:45;;;;;;;1.70;1.50;;;;;;;;;;4993633;28;20411;-81
2021/10/31 09:29:11;;;;;;;2.27;2.07;;;;;;;;;;4993766;28;20417;-80
2021/10/31 09:31:37;;;;;;;1.83;1.40;;;;;;;;;;4991823;28;20462;-81
2021/10/31 09:34:04;;;;;;;2.27;1.40;;;;;;;;;;4993784;28;20411;-80
2021/10/31 09:36:30;;;;;;;2.33;1.27;;;;;;;;;;4993764;28;20411;-79
2021/10/31 09:38:56;;;;;;;2.70;1.83;;;;;;;;;;4993628;28;20556;-79
2021/10/31 09:41:24;;;;;;;3.20;2.20;;;;;;;;;;4993584;28;20403;-82
2021/10/31 09:43:57;;;;;;;4.30;2.60;;;;;;;;;;4997701;28;20413;-79
2021/10/31 09:46:24;;;;;;;10.33;4.33;;;;;;;;;;4981772;28;20998;-80
2021/10/31 09:48:50;;;;;;;5.50;4.17;;;;;;;;;;4997687;28;20768;-81
2021/10/31 09:51:16;;;;;;;12.17;5.60;;;;;;;;;;4997297;28;20501;-79
2021/10/31 09:53:44;;;;;;;6.97;4.83;;;;;;;;;;4990572;28;20390;-79
2021/10/31 09:56:11;;;;;;;7.20;4.50;;;;;;;;;;4977943;28;20818;-79
2021/10/31 09:58:40;;;;;;;10.20;5.47;;;;;;;;;;4977675;28;20570;-79
2021/10/31 10:01:26;;;;;;;7.30;4.57;;;;;;;;;;4977481;28;20407;-80
2021/10/31 10:03:56;;;;;;;7.80;5.33;;;;;;;;;;4976346;28;20389;-79
2021/10/31 10:06:24;;;;;;;7.80;5.27;;;;;;;;;;4977768;28;20429;-79
2021/10/31 10:09:07;;;;;;;7.10;4.67;;;;;;;;;;4977931;28;20807;-82
2021/10/31 10:11:34;;;;;;;9.57;5.97;;;;;;;;;;4977339;28;20428;-79
2021/10/31 10:14:27;;;;;;;6.27;5.03;;;;;;;;;;4977411;28;20840;-79
2021/10/31 10:16:57;;;;;;;5.60;5.07;;;;;;;;;;4977516;28;20438;-80
2021/10/31 10:19:28;;;;;;;5.70;5.07;;;;;;;;;;4987871;28;20524;-81
2021/10/31 10:21:56;;;;;;;7.97;5.93;;;;;;;;;;4986228;28;20413;-78
2021/10/31 10:24:23;;;;;;;8.37;4.47;;;;;;;;;;4985998;28;20462;-78
2021/10/31 10:26:50;;;;;;;6.80;5.07;;;;;;;;;;4984374;28;20420;-75
2021/10/31 10:29:20;;;;;;;7.07;5.50;;;;;;;;;;4985290;28;20428;-78
2021/10/31 10:31:48;;;;;;;7.37;5.20;;;;;;;;;;4976713;28;20490;-78
2021/10/31 10:34:14;;;;;;;9.00;5.40;;;;;;;;;;4976944;28;20405;-81
2021/10/31 10:36:45;;;;;;;7.40;5.20;;;;;;;;;;4977065;28;20412;-81
2021/10/31 10:39:15;;;;;;;8.40;4.87;;;;;;;;;;4976942;28;20861;-79
2021/10/31 10:41:43;;;;;;;5.77;5.27;;;;;;;;;;4975496;28;20982;-80
2021/10/31 10:44:16;;;;;;;9.30;4.70;;;;;;;;;;4976929;28;20846;-80
2021/10/31 10:46:42;;;;;;;6.23;4.33;;;;;;;;;;4976961;28;20395;-81
2021/10/31 10:49:10;;;;;;;5.73;4.43;;;;;;;;;;4976844;28;20414;-79
2021/10/31 10:51:36;;;;;;;3.77;3.40;;;;;;;;;;4976685;28;20439;-82
2021/10/31 10:54:11;;;;;;;5.73;4.30;;;;;;;;;;4976458;28;20386;-79
2021/10/31 10:56:57;;;;;;;3.90;3.47;;;;;;;;;;4975976;28;20827;-78
2021/10/31 10:59:24;;;;;;;4.00;3.17;;;;;;;;;;4977008;28;20502;-81
2021/10/31 11:02:08;;;;;;;2.77;2.57;;;;;;;;;;4976428;28;20406;-78
2021/10/31 11:04:35;;;;;;;2.97;2.50;;;;;;;;;;4976871;28;20406;-78
2021/10/31 11:07:02;;;;;;;4.23;2.40;;;;;;;;;;4975470;28;20391;-79
2021/10/31 11:09:36;;;;;;;3.10;2.90;;;;;;;;;;4979684;28;20416;-81
2021/10/31 11:12:20;;;;;;;4.40;2.83;;;;;;;;;;4978861;28;20502;-77
2021/10/31 11:14:47;;;;;;;3.13;2.83;;;;;;;;;;4976429;28;20433;-78
2021/10/31 11:17:13;;;;;;;2.50;2.30;;;;;;;;;;4975120;28;20390;-78
2021/10/31 11:19:41;;;;;;;3.00;2.70;;;;;;;;;;4975159;28;20471;-80
2021/10/31 11:22:07;;;;;;;4.80;2.73;;;;;;;;;;4983947;28;20402;-79
2021/10/31 11:24:34;;;;;;;3.10;2.63;;;;;;;;;;4984704;28;20389;-81
2021/10/31 11:27:00;;;;;;;3.83;2.50;;;;;;;;;;4975003;28;20834;-78
2021/10/31 11:29:29;;;;;;;3.13;2.60;;;;;;;;;;4976213;28;20453;-79
2021/10/31 11:31:55;;;;;;;3.17;2.80;;;;;;;;;;4975491;28;20451;-78
2021/10/31 11:34:22;;;;;;;2.93;2.73;;;;;;;;;;4976023;28;20412;-78
2021/10/31 11:36:48;;;;;;;2.53;2.33;;;;;;;;;;4974549;28;20424;-79
2021/10/31 11:39:14;;;;;;;3.10;2.60;;;;;;;;;;4975821;28;20540;-78
2021/10/31 11:41:40;;;;;;;4.40;3.47;;;;;;;;;;4975620;28;20435;-80
2021/10/31 11:44:06;;;;;;;3.40;2.67;;;;;;;;;;4976085;28;20867;-79
2021/10/31 11:46:40;;;;;;;2.77;2.30;;;;;;;;;;4974815;28;20471;-78
2021/10/31 11:49:06;;;;;;;3.03;2.23;;;;;;;;;;4975826;28;20427;-81
2021/10/31 11:51:39;;;;;;;2.83;2.53;;;;;;;;;;4975518;28;20398;-80
2021/10/31 11:54:15;;;;;;;2.43;2.23;;;;;;;;;;4975889;28;20431;-78
2021/10/31 11:56:51;;;;;;;2.30;2.10;;;;;;;;;;4975996;28;20784;-79
2021/10/31 11:59:18;;;;;;;2.27;2.07;;;;;;;;;;4975749;28;20836;-81
2021/10/31 12:01:44;;;;;;;2.27;2.00;;;;;;;;;;4975351;28;20536;-80
2021/10/31 12:04:13;;;;;;;2.17;1.97;;;;;;;;;;4975043;28;20381;-80
2021/10/31 12:06:40;;;;;;;1.73;1.37;;;;;;;;;;4974025;28;20498;-80
2021/10/31 12:09:07;;;;;;;1.77;1.67;;;;;;;;;;4975269;28;20779;-80
2021/10/31 12:11:33;;;;;;;3.87;1.83;;;;;;;;;;4975170;28;20453;-81
2021/10/31 12:14:09;;;;;;;1.70;1.60;;;;;;;;;;4975386;28;20444;-78
2021/10/31 12:16:54;;;;;;;4.90;1.40;;;;;;;;;;4975445;28;20795;-79
2021/10/31 12:19:23;;;;;;;2.03;1.20;;;;;;;;;;4975142;28;20466;-78
2021/10/31 12:22:05;;;;;;;1.40;1.20;;;;;;;;;;4974849;28;20431;-78
2021/10/31 12:24:38;;;;;;;1.73;1.23;;;;;;;;;;4977665;28;20838;-79
2021/10/31 12:27:09;;;;;;;3.07;1.67;;;;;;;;;;4979438;28;20420;-78
2021/10/31 12:29:36;;;;;;;2.13;1.93;;;;;;;;;;4991905;28;20793;-78
2021/10/31 12:32:09;;;;;;;3.50;2.40;;;;;;;;;;4993823;28;20437;-79
2021/10/31 12:34:39;;;;;;;3.70;2.00;;;;;;;;;;4994488;28;20418;-81
2021/10/31 12:37:21;;;;;;;2.33;1.60;;;;;;;;;;4993096;28;20408;-79
2021/10/31 12:39:57;;;;;;;1.63;1.30;;;;;;;;;;4994080;28;20480;-80
2021/10/31 12:42:23;;;;;;;2.80;1.70;;;;;;;;;;4993835;28;20803;-81
2021/10/31 12:44:53;;;;;;;1.70;1.50;;;;;;;;;;4994348;28;20914;-80
2021/10/31 12:47:24;;;;;;;2.43;1.67;;;;;;;;;;4993836;28;20392;-80
2021/10/31 12:49:50;;;;;;;1.53;1.20;;;;;;;;;;4994072;28;20407;-81
2021/10/31 12:52:24;;;;;;;1.10;1.00;;;;;;;;;;4993929;28;20401;-78
2021/10/31 12:54:58;;;;;;;2.97;1.20;;;;;;;;;;4994147;28;20414;-82
2021/10/31 12:57:24;;;;;;;2.60;1.30;;;;;;;;;;4983033;28;20398;-81
2021/10/31 12:59:52;;;;;;;1.80;1.33;;;;;;;;;;4973457;28;20409;-79
2021/10/31 13:02:23;;;;;;;2.50;2.10;;;;;;;;;;4974177;28;20427;-79
2021/10/31 13:04:55;;;;;;;2.03;1.90;;;;;;;;;;4973597;28;20420;-79
2021/10/31 13:07:25;;;;;;;2.27;2.07;;;;;;;;;;4974581;28;20420;-81
2021/10/31 13:09:53;;;;;;;1.87;1.77;;;;;;;;;;4974718;28;20383;-83
2021/10/31 13:12:26;;;;;;;1.93;1.80;;;;;;;;;;4974208;28;20590;-77
2021/10/31 13:14:52;;;;;;;3.30;2.20;;;;;;;;;;4974381;28;20404;-79
2021/10/31 13:17:18;;;;;;;3.37;2.23;;;;;;;;;;4974055;28;20390;-82
2021/10/31 13:19:46;;;;;;;3.07;2.77;;;;;;;;;;4974246;28;20441;-77
2021/10/31 13:22:20;;;;;;;2.13;2.03;;;;;;;;;;4974022;28;20406;-79
2021/10/31 13:24:50;;;;;;;5.33;2.90;;;;;;;;;;4974214;28;20378;-81
2021/10/31 13:27:17;;;;;;;3.63;2.00;;;;;;;;;;4974116;28;20899;-79
2021/10/31 13:29:44;;;;;;;3.93;2.07;;;;;;;;;;4974012;28;20441;-79
2021/10/31 13:32:18;;;;;;;2.90;2.70;;;;;;;;;;4973813;28;20529;-80
2021/10/31 13:34:46;;;;;;;3.60;2.50;;;;;;;;;;4974083;28;20514;-78
2021/10/31 13:37:14;;;;;;;2.77;2.57;;;;;;;;;;4974034;28;20833;-79
2021/10/31 13:39:40;;;;;;;2.67;2.17;;;;;;;;;;4973845;28;20467;-78
2021/10/31 13:42:10;;;;;;;2.20;2.00;;;;;;;;;;4973784;28;20435;-78
2021/10/31 13:44:40;;;;;;;1.90;1.80;;;;;;;;;;4974219;28;20872;-79
2021/10/31 13:47:18;;;;;;;2.67;2.00;;;;;;;;;;4974161;28;20875;-78
2021/10/31 13:49:46;;;;;;;2.37;2.13;;;;;;;;;;4974020;28;20510;-77
2021/10/31 13:52:13;;;;;;;1.77;1.67;;;;;;;;;;4974965;28;20439;-77
2021/10/31 13:54:44;;;;;;;1.80;1.70;;;;;;;;;;4974155;28;20458;-80
2021/10/31 13:57:15;;;;;;;1.67;1.53;;;;;;;;;;4974141;28;20422;-78
2021/10/31 13:59:41;;;;;;;2.27;1.37;;;;;;;;;;4974063;28;20489;-78
2021/10/31 14:02:14;;;;;;;2.93;1.80;;;;;;;;;;4973722;28;20406;-78
2021/10/31 14:04:40;;;;;;;2.10;1.63;;;;;;;;;;4974142;28;20412;-78
2021/10/31 14:07:07;;;;;;;2.80;1.63;;;;;;;;;;4972600;28;20717;-78
2021/10/31 14:09:41;;;;;;;2.13;1.80;;;;;;;;;;4973975;28;20397;-78
2021/10/31 14:12:07;;;;;;;1.57;1.47;;;;;;;;;;4973260;28;20412;-78
2021/10/31 14:14:35;;;;;;;1.73;1.63;;;;;;;;;;4973927;28;20802;-78
2021/10/31 14:17:10;;;;;;;1.70;1.60;;;;;;;;;;4973547;28;20399;-76
2021/10/31 14:19:36;;;;;;;2.13;1.83;;;;;;;;;;4973544;28;20520;-78
2021/10/31 14:22:03;;;;;;;1.50;1.40;;;;;;;;;;4973309;28;20776;-76
2021/10/31 14:24:29;;;;;;;1.20;1.10;;;;;;;;;;4973801;28;20379;-78
2021/10/31 14:26:56;;;;;;;1.47;1.10;;;;;;;;;;4972629;28;20469;-78
2021/10/31 14:29:26;;;;;;;1.30;1.20;;;;;;;;;;4975245;28;20518;-78
2021/10/31 14:31:52;;;;;;;1.80;1.37;;;;;;;;;;4976587;28;20429;-76
2021/10/31 14:34:19;;;;;;;1.40;1.30;;;;;;;;;;4977099;28;20418;-76
2021/10/31 14:36:45;;;;;;;1.20;1.10;;;;;;;;;;4977162;28;20473;-79
2021/10/31 14:39:11;;;;;;;1.23;1.13;;;;;;;;;;4976926;28;20462;-77
2021/10/31 14:41:40;;;;;;;1.20;1.00;;;;;;;;;;4976729;28;20537;-78
2021/10/31 14:44:07;;;;;;;1.10;1.00;;;;;;;;;;4976911;28;20766;-79
2021/10/31 14:46:37;;;;;;;1.10;1.00;;;;;;;;;;4977156;28;20880;-76
2021/10/31 14:49:09;;;;;;;1.10;1.00;;;;;;;;;;4977284;28;20420;-77